createdAt,value
2019-04-27T00:00:11.224Z,1008.97
2019-04-27T00:01:12.047Z,1008.97
2019-04-27T00:02:13.342Z,1009.01
2019-04-27T00:03:13.219Z,1009.00
2019-04-27T00:04:11.647Z,1008.95
2019-04-27T00:05:11.189Z,1008.99
2019-04-27T00:06:11.181Z,1008.99
2019-04-27T00:07:11.178Z,1009.01
2019-04-27T00:08:11.168Z,1009.01
2019-04-27T00:09:11.649Z,1008.97
2019-04-27T00:10:11.156Z,1008.95
2019-04-27T00:11:13.518Z,1008.95
2019-04-27T00:12:11.136Z,1008.95
2019-04-27T00:13:11.136Z,1008.94
2019-04-27T00:14:15.034Z,1008.94
2019-04-27T00:15:13.086Z,1008.98
2019-04-27T00:16:11.228Z,1008.94
2019-04-27T00:17:12.829Z,1008.92
2019-04-27T00:18:13.973Z,1008.94
2019-04-27T00:19:13.060Z,1008.86
2019-04-27T00:20:12.796Z,1008.89
2019-04-27T00:21:11.077Z,1008.86
2019-04-27T00:22:11.071Z,1008.82
2019-04-27T00:23:11.061Z,1008.79
2019-04-27T00:24:11.056Z,1008.81
2019-04-27T00:25:11.049Z,1008.78
2019-04-27T00:26:11.039Z,1008.78
2019-04-27T00:27:11.037Z,1008.76
2019-04-27T00:28:12.755Z,1008.74
2019-04-27T00:29:11.018Z,1008.76
2019-04-27T00:30:11.011Z,1008.79
2019-04-27T00:31:11.007Z,1008.77
2019-04-27T00:32:10.999Z,1008.76
2019-04-27T00:33:10.996Z,1008.75
2019-04-27T00:34:10.986Z,1008.74
2019-04-27T00:35:10.977Z,1008.75
2019-04-27T00:36:10.967Z,1008.68
2019-04-27T00:37:10.961Z,1008.67
2019-04-27T00:38:10.952Z,1008.69
2019-04-27T00:39:10.959Z,1008.65
2019-04-27T00:40:10.942Z,1008.69
2019-04-27T00:41:10.931Z,1008.66
2019-04-27T00:42:10.927Z,1008.63
2019-04-27T00:43:10.916Z,1008.66
2019-04-27T00:44:10.923Z,1008.67
2019-04-27T00:45:10.909Z,1008.64
2019-04-27T00:46:10.898Z,1008.65
2019-04-27T00:47:10.887Z,1008.67
2019-04-27T00:48:10.911Z,1008.65
2019-04-27T00:49:10.876Z,1008.63
2019-04-27T00:50:10.869Z,1008.63
2019-04-27T00:51:10.862Z,1008.59
2019-04-27T00:52:10.856Z,1008.56
2019-04-27T00:53:10.846Z,1008.56
2019-04-27T00:54:10.838Z,1008.57
2019-04-27T00:55:10.831Z,1008.55
2019-04-27T00:56:10.821Z,1008.52
2019-04-27T00:57:10.812Z,1008.56
2019-04-27T00:58:10.820Z,1008.49
2019-04-27T00:59:10.805Z,1008.48
2019-04-27T01:00:10.798Z,1008.49
2019-04-27T01:01:10.789Z,1008.49
2019-04-27T01:02:10.783Z,1008.46
2019-04-27T01:03:10.775Z,1008.48
2019-04-27T01:04:10.765Z,1008.46
2019-04-27T01:05:10.751Z,1008.42
2019-04-27T01:06:10.749Z,1008.39
2019-04-27T01:07:10.739Z,1008.44
2019-04-27T01:08:10.738Z,1008.43
2019-04-27T01:09:10.725Z,1008.41
2019-04-27T01:10:10.737Z,1008.40
2019-04-27T01:11:10.712Z,1008.38
2019-04-27T01:12:10.705Z,1008.40
2019-04-27T01:13:10.699Z,1008.39
2019-04-27T01:14:10.689Z,1008.37
2019-04-27T01:15:10.679Z,1008.38
2019-04-27T01:16:13.180Z,1008.36
2019-04-27T01:17:10.668Z,1008.30
2019-04-27T01:18:14.607Z,1008.34
2019-04-27T01:19:10.656Z,1008.37
2019-04-27T01:20:10.642Z,1008.31
2019-04-27T01:21:10.641Z,1008.29
2019-04-27T01:22:10.622Z,1008.29
2019-04-27T01:23:10.846Z,1008.25
2019-04-27T01:24:10.620Z,1008.26
2019-04-27T01:25:10.609Z,1008.28
2019-04-27T01:26:10.602Z,1008.27
2019-04-27T01:27:10.589Z,1008.27
2019-04-27T01:28:10.584Z,1008.22
2019-04-27T01:29:10.577Z,1008.21
2019-04-27T01:30:10.566Z,1008.21
2019-04-27T01:31:10.564Z,1008.19
2019-04-27T01:32:10.555Z,1008.17
2019-04-27T01:33:10.546Z,1008.22
2019-04-27T01:34:10.546Z,1008.18
2019-04-27T01:35:10.534Z,1008.18
2019-04-27T01:36:10.765Z,1008.15
2019-04-27T01:37:10.517Z,1008.20
2019-04-27T01:38:10.511Z,1008.16
2019-04-27T01:39:10.498Z,1008.19
2019-04-27T01:40:10.497Z,1008.19
2019-04-27T01:41:10.500Z,1008.17
2019-04-27T01:42:10.615Z,1008.20
2019-04-27T01:43:10.475Z,1008.14
2019-04-27T01:44:10.467Z,1008.15
2019-04-27T01:45:10.459Z,1008.15
2019-04-27T01:46:10.457Z,1008.15
2019-04-27T01:47:10.470Z,1008.12
2019-04-27T01:48:22.557Z,1008.13
2019-04-27T01:49:10.427Z,1008.12
2019-04-27T01:50:10.419Z,1008.06
2019-04-27T01:51:10.411Z,1008.10
2019-04-27T01:52:10.402Z,1008.06
2019-04-27T01:53:10.395Z,1008.05
2019-04-27T01:54:10.567Z,1008.08
2019-04-27T01:55:10.383Z,1008.05
2019-04-27T01:56:10.374Z,1008.09
2019-04-27T01:57:10.548Z,1008.05
2019-04-27T01:58:11.038Z,1008.04
2019-04-27T01:59:10.351Z,1007.99
2019-04-27T02:00:10.343Z,1008.00
2019-04-27T02:01:10.335Z,1007.97
2019-04-27T02:02:10.606Z,1008.02
2019-04-27T02:03:10.322Z,1008.03
2019-04-27T02:04:10.317Z,1007.96
2019-04-27T02:05:10.305Z,1007.97
2019-04-27T02:06:10.301Z,1007.99
2019-04-27T02:07:10.292Z,1008.00
2019-04-27T02:08:10.284Z,1007.99
2019-04-27T02:09:10.277Z,1008.00
2019-04-27T02:10:10.274Z,1007.99
2019-04-27T02:11:10.980Z,1007.99
2019-04-27T02:12:10.253Z,1008.06
2019-04-27T02:13:10.242Z,1008.00
2019-04-27T02:14:10.237Z,1008.06
2019-04-27T02:15:10.693Z,1008.04
2019-04-27T02:16:10.231Z,1007.99
2019-04-27T02:17:10.222Z,1008.03
2019-04-27T02:18:10.208Z,1007.99
2019-04-27T02:19:11.407Z,1008.01
2019-04-27T02:20:10.192Z,1008.01
2019-04-27T02:21:10.187Z,1008.02
2019-04-27T02:22:10.177Z,1008.03
2019-04-27T02:23:10.171Z,1008.03
2019-04-27T02:24:11.279Z,1008.01
2019-04-27T02:25:10.153Z,1008.02
2019-04-27T02:26:10.151Z,1008.02
2019-04-27T02:27:10.142Z,1008.02
2019-04-27T02:28:10.143Z,1008.00
2019-04-27T02:29:10.127Z,1007.97
2019-04-27T02:30:11.641Z,1007.93
2019-04-27T02:31:10.109Z,1007.99
2019-04-27T02:32:10.663Z,1007.96
2019-04-27T02:33:12.828Z,1007.92
2019-04-27T02:34:10.088Z,1007.95
2019-04-27T02:35:10.082Z,1007.92
2019-04-27T02:36:14.778Z,1007.91
2019-04-27T02:37:10.351Z,1007.92
2019-04-27T02:38:10.229Z,1007.88
2019-04-27T02:39:10.053Z,1007.88
2019-04-27T02:40:10.145Z,1007.87
2019-04-27T02:41:10.295Z,1007.89
2019-04-27T02:42:10.268Z,1007.91
2019-04-27T02:43:10.400Z,1007.91
2019-04-27T02:44:10.013Z,1007.88
2019-04-27T02:45:10.006Z,1007.85
2019-04-27T02:46:10.004Z,1007.90
2019-04-27T02:47:10.669Z,1007.84
2019-04-27T02:48:10.092Z,1007.85
2019-04-27T02:49:10.692Z,1007.84
2019-04-27T02:50:10.720Z,1007.81
2019-04-27T02:51:10.161Z,1007.79
2019-04-27T02:52:09.953Z,1007.80
2019-04-27T02:53:11.158Z,1007.78
2019-04-27T02:54:12.612Z,1007.79
2019-04-27T02:55:09.938Z,1007.78
2019-04-27T02:56:10.418Z,1007.79
2019-04-27T02:57:10.364Z,1007.80
2019-04-27T02:58:12.964Z,1007.78
2019-04-27T02:59:12.077Z,1007.77
2019-04-27T03:00:10.600Z,1007.75
2019-04-27T03:01:10.098Z,1007.74
2019-04-27T03:02:10.834Z,1007.74
2019-04-27T03:03:10.343Z,1007.74
2019-04-27T03:04:10.107Z,1007.72
2019-04-27T03:05:12.799Z,1007.72
2019-04-27T03:06:09.993Z,1007.72
2019-04-27T03:07:11.441Z,1007.69
2019-04-27T03:08:10.381Z,1007.68
2019-04-27T03:09:10.531Z,1007.70
2019-04-27T03:10:09.985Z,1007.67
2019-04-27T03:11:10.059Z,1007.69
2019-04-27T03:12:10.388Z,1007.64
2019-04-27T03:13:11.132Z,1007.63
2019-04-27T03:14:27.822Z,1007.62
2019-04-27T03:15:10.331Z,1007.58
2019-04-27T03:16:13.008Z,1007.59
2019-04-27T03:17:10.000Z,1007.56
2019-04-27T03:18:10.111Z,1007.55
2019-04-27T03:19:17.511Z,1007.54
2019-04-27T03:20:10.460Z,1007.54
2019-04-27T03:21:10.333Z,1007.53
2019-04-27T03:22:09.901Z,1007.47
2019-04-27T03:23:09.853Z,1007.52
2019-04-27T03:24:09.949Z,1007.45
2019-04-27T03:25:11.636Z,1007.46
2019-04-27T03:26:10.719Z,1007.43
2019-04-27T03:27:09.847Z,1007.43
2019-04-27T03:28:10.727Z,1007.38
2019-04-27T03:29:09.996Z,1007.36
2019-04-27T03:30:12.219Z,1007.36
2019-04-27T03:31:13.667Z,1007.35
2019-04-27T03:32:12.661Z,1007.32
2019-04-27T03:33:11.931Z,1007.33
2019-04-27T03:34:11.960Z,1007.30
2019-04-27T03:35:12.694Z,1007.23
2019-04-27T03:36:12.991Z,1007.24
2019-04-27T03:37:10.301Z,1007.26
2019-04-27T03:38:10.406Z,1007.24
2019-04-27T03:39:10.232Z,1007.24
2019-04-27T03:40:10.329Z,1007.20
2019-04-27T03:41:09.741Z,1007.18
2019-04-27T03:42:10.363Z,1007.15
2019-04-27T03:43:11.679Z,1007.20
2019-04-27T03:44:09.567Z,1007.12
2019-04-27T03:45:10.703Z,1007.10
2019-04-27T03:46:10.371Z,1007.07
2019-04-27T03:47:12.540Z,1007.03
2019-04-27T03:48:10.321Z,1007.00
2019-04-27T03:49:09.863Z,1006.95
2019-04-27T03:50:10.343Z,1006.94
2019-04-27T03:51:10.177Z,1006.91
2019-04-27T03:52:09.753Z,1006.90
2019-04-27T03:53:10.363Z,1006.92
2019-04-27T03:54:10.731Z,1006.92
2019-04-27T03:55:10.380Z,1006.94
2019-04-27T03:56:10.181Z,1006.97
2019-04-27T03:57:10.022Z,1006.96
2019-04-27T03:58:11.920Z,1006.97
2019-04-27T03:59:10.257Z,1006.90
2019-04-27T04:00:10.284Z,1006.88
2019-04-27T04:01:10.531Z,1006.85
2019-04-27T04:02:10.112Z,1006.81
2019-04-27T04:03:10.661Z,1006.76
2019-04-27T04:04:10.382Z,1006.76
2019-04-27T04:05:09.939Z,1006.81
2019-04-27T04:06:10.750Z,1006.80
2019-04-27T04:07:09.644Z,1006.78
2019-04-27T04:08:10.729Z,1006.77
2019-04-27T04:09:10.174Z,1006.79
2019-04-27T04:10:10.762Z,1006.80
2019-04-27T04:11:10.284Z,1006.81
2019-04-27T04:12:09.616Z,1006.86
2019-04-27T04:13:10.723Z,1006.83
2019-04-27T04:14:10.163Z,1006.84
2019-04-27T04:15:09.986Z,1006.82
2019-04-27T04:16:10.820Z,1006.77
2019-04-27T04:17:09.921Z,1006.80
2019-04-27T04:18:09.864Z,1006.78
2019-04-27T04:19:09.908Z,1006.82
2019-04-27T04:20:10.171Z,1006.86
2019-04-27T04:21:09.595Z,1006.83
2019-04-27T04:22:10.290Z,1006.85
2019-04-27T04:23:10.686Z,1006.88
2019-04-27T04:24:11.847Z,1006.86
2019-04-27T04:25:10.808Z,1006.90
2019-04-27T04:26:09.834Z,1006.92
2019-04-27T04:27:09.950Z,1006.85
2019-04-27T04:28:09.482Z,1006.83
2019-04-27T04:29:10.282Z,1006.87
2019-04-27T04:30:11.819Z,1006.86
2019-04-27T04:31:13.430Z,1006.83
2019-04-27T04:32:10.649Z,1006.82
2019-04-27T04:33:10.143Z,1006.83
2019-04-27T04:34:11.789Z,1006.87
2019-04-27T04:35:10.338Z,1006.83
2019-04-27T04:36:10.151Z,1006.83
2019-04-27T04:37:09.403Z,1006.85
2019-04-27T04:38:10.477Z,1006.84
2019-04-27T04:39:12.042Z,1006.87
2019-04-27T04:40:09.822Z,1006.84
2019-04-27T04:41:09.644Z,1006.86
2019-04-27T04:42:10.234Z,1006.88
2019-04-27T04:43:10.886Z,1006.80
2019-04-27T04:44:12.175Z,1006.84
2019-04-27T04:45:10.549Z,1006.78
2019-04-27T04:46:12.348Z,1006.79
2019-04-27T04:47:10.347Z,1006.80
2019-04-27T04:48:09.894Z,1006.78
2019-04-27T04:49:09.501Z,1006.75
2019-04-27T04:50:14.686Z,1006.80
2019-04-27T04:51:10.073Z,1006.82
2019-04-27T04:52:09.686Z,1006.79
2019-04-27T04:53:12.243Z,1006.82
2019-04-27T04:54:09.506Z,1006.83
2019-04-27T04:55:10.206Z,1006.83
2019-04-27T04:56:10.610Z,1006.75
2019-04-27T04:57:09.360Z,1006.72
2019-04-27T04:58:09.429Z,1006.75
2019-04-27T04:59:10.059Z,1006.81
2019-04-27T05:00:09.834Z,1006.79
2019-04-27T05:01:09.860Z,1006.81
2019-04-27T05:02:10.517Z,1006.78
2019-04-27T05:03:09.477Z,1006.79
2019-04-27T05:04:09.134Z,1006.76
2019-04-27T05:05:09.507Z,1006.80
2019-04-27T05:06:08.930Z,1006.75
2019-04-27T05:07:09.268Z,1006.78
2019-04-27T05:08:09.188Z,1006.82
2019-04-27T05:09:09.347Z,1006.81
2019-04-27T05:10:09.192Z,1006.84
2019-04-27T05:11:09.626Z,1006.79
2019-04-27T05:12:08.990Z,1006.84
2019-04-27T05:13:09.453Z,1006.87
2019-04-27T05:14:09.891Z,1006.86
2019-04-27T05:15:09.247Z,1006.85
2019-04-27T05:16:09.058Z,1006.84
2019-04-27T05:17:09.458Z,1006.85
2019-04-27T05:18:09.260Z,1006.83
2019-04-27T05:19:11.104Z,1006.84
2019-04-27T05:20:22.059Z,1006.82
2019-04-27T05:21:08.851Z,1006.80
2019-04-27T05:22:09.318Z,1006.85
2019-04-27T05:23:09.638Z,1006.81
2019-04-27T05:24:09.356Z,1006.83
2019-04-27T05:25:09.326Z,1006.81
2019-04-27T05:26:09.234Z,1006.83
2019-04-27T05:27:09.304Z,1006.79
2019-04-27T05:28:09.794Z,1006.86
2019-04-27T05:29:09.240Z,1006.84
2019-04-27T05:30:09.309Z,1006.80
2019-04-27T05:31:09.149Z,1006.77
2019-04-27T05:32:09.183Z,1006.78
2019-04-27T05:33:09.124Z,1006.76
2019-04-27T05:34:09.540Z,1006.74
2019-04-27T05:35:08.892Z,1006.69
2019-04-27T05:36:09.187Z,1006.72
2019-04-27T05:37:09.033Z,1006.76
2019-04-27T05:38:13.184Z,1006.74
2019-04-27T05:39:09.809Z,1006.75
2019-04-27T05:40:09.119Z,1006.80
2019-04-27T05:41:08.694Z,1006.80
2019-04-27T05:42:10.995Z,1006.80
2019-04-27T05:43:09.133Z,1006.83
2019-04-27T05:44:12.646Z,1006.81
2019-04-27T05:45:09.262Z,1006.83
2019-04-27T05:46:12.142Z,1006.81
2019-04-27T05:47:12.912Z,1006.78
2019-04-27T05:48:09.420Z,1006.81
2019-04-27T05:49:09.567Z,1006.80
2019-04-27T05:50:09.088Z,1006.79
2019-04-27T05:51:09.217Z,1006.79
2019-04-27T05:52:14.412Z,1006.77
2019-04-27T05:53:08.707Z,1006.74
2019-04-27T05:54:09.064Z,1006.69
2019-04-27T05:55:08.714Z,1006.72
2019-04-27T05:56:09.374Z,1006.69
2019-04-27T05:57:09.494Z,1006.72
2019-04-27T05:58:09.336Z,1006.70
2019-04-27T05:59:09.167Z,1006.68
2019-04-27T06:00:09.190Z,1006.67
2019-04-27T06:01:09.596Z,1006.64
2019-04-27T06:02:09.352Z,1006.65
2019-04-27T06:03:09.089Z,1006.71
2019-04-27T06:04:09.032Z,1006.67
2019-04-27T06:05:08.884Z,1006.68
2019-04-27T06:06:09.646Z,1006.68
2019-04-27T06:07:09.210Z,1006.69
2019-04-27T06:08:08.769Z,1006.67
2019-04-27T06:09:09.503Z,1006.66
2019-04-27T06:10:09.557Z,1006.68
2019-04-27T06:11:09.445Z,1006.68
2019-04-27T06:12:08.994Z,1006.64
2019-04-27T06:13:10.654Z,1006.62
2019-04-27T06:14:09.723Z,1006.60
2019-04-27T06:15:09.721Z,1006.64
2019-04-27T06:16:09.427Z,1006.64
2019-04-27T06:17:09.428Z,1006.58
2019-04-27T06:18:09.301Z,1006.67
2019-04-27T06:19:09.661Z,1006.63
2019-04-27T06:20:09.068Z,1006.61
2019-04-27T06:21:09.771Z,1006.62
2019-04-27T06:22:09.646Z,1006.65
2019-04-27T06:23:08.966Z,1006.62
2019-04-27T06:24:08.791Z,1006.60
2019-04-27T06:25:11.285Z,1006.60
2019-04-27T06:26:11.336Z,1006.60
2019-04-27T06:27:09.427Z,1006.59
2019-04-27T06:28:09.240Z,1006.61
2019-04-27T06:29:09.530Z,1006.55
2019-04-27T06:30:09.368Z,1006.60
2019-04-27T06:31:08.846Z,1006.56
2019-04-27T06:32:09.029Z,1006.57
2019-04-27T06:33:09.395Z,1006.49
2019-04-27T06:34:09.789Z,1006.50
2019-04-27T06:35:09.139Z,1006.55
2019-04-27T06:36:10.004Z,1006.60
2019-04-27T06:37:09.542Z,1006.54
2019-04-27T06:38:10.177Z,1006.58
2019-04-27T06:39:09.812Z,1006.58
2019-04-27T06:40:09.760Z,1006.58
2019-04-27T06:41:10.037Z,1006.63
2019-04-27T06:42:16.697Z,1006.59
2019-04-27T06:43:08.713Z,1006.63
2019-04-27T06:44:10.993Z,1006.58
2019-04-27T06:45:09.920Z,1006.59
2019-04-27T06:46:08.821Z,1006.59
2019-04-27T06:47:09.117Z,1006.62
2019-04-27T06:48:09.625Z,1006.63
2019-04-27T06:49:09.052Z,1006.61
2019-04-27T06:50:08.632Z,1006.60
2019-04-27T06:51:09.670Z,1006.64
2019-04-27T06:52:08.686Z,1006.59
2019-04-27T06:53:09.123Z,1006.55
2019-04-27T06:54:09.261Z,1006.56
2019-04-27T06:55:09.368Z,1006.55
2019-04-27T06:56:08.968Z,1006.54
2019-04-27T06:57:09.206Z,1006.53
2019-04-27T06:58:09.006Z,1006.52
2019-04-27T06:59:08.724Z,1006.49
2019-04-27T07:00:09.052Z,1006.51
2019-04-27T07:01:09.502Z,1006.52
2019-04-27T07:02:08.719Z,1006.52
2019-04-27T07:03:08.990Z,1006.52
2019-04-27T07:04:10.519Z,1006.54
2019-04-27T07:05:08.959Z,1006.51
2019-04-27T07:06:08.850Z,1006.53
2019-04-27T07:07:09.772Z,1006.54
2019-04-27T07:08:08.981Z,1006.52
2019-04-27T07:09:09.577Z,1006.52
2019-04-27T07:10:08.662Z,1006.49
2019-04-27T07:11:10.923Z,1006.53
2019-04-27T07:12:08.991Z,1006.54
2019-04-27T07:13:09.655Z,1006.57
2019-04-27T07:14:11.172Z,1006.59
2019-04-27T07:15:08.923Z,1006.57
2019-04-27T07:16:09.616Z,1006.60
2019-04-27T07:17:08.970Z,1006.57
2019-04-27T07:18:09.616Z,1006.58
2019-04-27T07:19:09.455Z,1006.59
2019-04-27T07:20:09.057Z,1006.55
2019-04-27T07:21:17.052Z,1006.59
2019-04-27T07:22:09.136Z,1006.59
2019-04-27T07:23:09.501Z,1006.56
2019-04-27T07:24:08.994Z,1006.56
2019-04-27T07:25:09.069Z,1006.54
2019-04-27T07:26:09.378Z,1006.54
2019-04-27T07:27:09.352Z,1006.54
2019-04-27T07:28:09.197Z,1006.55
2019-04-27T07:29:09.544Z,1006.51
2019-04-27T07:30:11.766Z,1006.55
2019-04-27T07:31:09.566Z,1006.60
2019-04-27T07:32:09.298Z,1006.55
2019-04-27T07:33:08.720Z,1006.59
2019-04-27T07:34:09.333Z,1006.59
2019-04-27T07:35:09.597Z,1006.58
2019-04-27T07:36:08.992Z,1006.55
2019-04-27T07:37:09.745Z,1006.52
2019-04-27T07:38:09.722Z,1006.56
2019-04-27T07:39:11.004Z,1006.54
2019-04-27T07:40:09.098Z,1006.58
2019-04-27T07:41:09.579Z,1006.60
2019-04-27T07:42:08.539Z,1006.56
2019-04-27T07:43:09.101Z,1006.58
2019-04-27T07:44:08.378Z,1006.59
2019-04-27T07:45:09.360Z,1006.56
2019-04-27T07:46:08.887Z,1006.54
2019-04-27T07:47:09.634Z,1006.57
2019-04-27T07:48:09.256Z,1006.55
2019-04-27T07:49:09.403Z,1006.55
2019-04-27T07:50:09.690Z,1006.56
2019-04-27T07:51:08.989Z,1006.53
2019-04-27T07:52:08.749Z,1006.54
2019-04-27T07:53:08.627Z,1006.57
2019-04-27T07:54:08.959Z,1006.55
2019-04-27T07:55:08.677Z,1006.56
2019-04-27T07:56:09.331Z,1006.50
2019-04-27T07:57:09.728Z,1006.51
2019-04-27T07:58:08.892Z,1006.50
2019-04-27T07:59:09.095Z,1006.50
2019-04-27T08:00:09.385Z,1006.48
2019-04-27T08:01:09.292Z,1006.46
2019-04-27T08:02:08.604Z,1006.43
2019-04-27T08:03:07.886Z,1006.38
2019-04-27T08:04:09.069Z,1006.39
2019-04-27T08:05:09.483Z,1006.34
2019-04-27T08:06:08.508Z,1006.38
2019-04-27T08:07:09.186Z,1006.41
2019-04-27T08:08:08.945Z,1006.36
2019-04-27T08:09:09.398Z,1006.37
2019-04-27T08:10:09.493Z,1006.38
2019-04-27T08:11:08.861Z,1006.35
2019-04-27T08:12:07.842Z,1006.32
2019-04-27T08:13:09.496Z,1006.32
2019-04-27T08:14:08.723Z,1006.30
2019-04-27T08:15:08.874Z,1006.26
2019-04-27T08:16:08.652Z,1006.27
2019-04-27T08:17:09.615Z,1006.21
2019-04-27T08:18:08.991Z,1006.20
2019-04-27T08:19:09.724Z,1006.22
2019-04-27T08:20:09.213Z,1006.22
2019-04-27T08:21:08.943Z,1006.16
2019-04-27T08:22:09.222Z,1006.15
2019-04-27T08:23:09.511Z,1006.10
2019-04-27T08:24:09.260Z,1006.10
2019-04-27T08:25:09.465Z,1006.11
2019-04-27T08:26:08.760Z,1006.10
2019-04-27T08:27:09.349Z,1006.12
2019-04-27T08:28:08.557Z,1006.13
2019-04-27T08:29:08.598Z,1006.15
2019-04-27T08:30:09.368Z,1006.11
2019-04-27T08:31:08.886Z,1006.12
2019-04-27T08:32:09.584Z,1006.08
2019-04-27T08:33:09.134Z,1006.07
2019-04-27T08:34:08.533Z,1006.11
2019-04-27T08:35:09.433Z,1006.12
2019-04-27T08:36:09.003Z,1006.12
2019-04-27T08:37:09.102Z,1006.15
2019-04-27T08:38:09.085Z,1006.15
2019-04-27T08:39:10.564Z,1006.15
2019-04-27T08:40:09.332Z,1006.16
2019-04-27T08:41:08.977Z,1006.19
2019-04-27T08:42:09.472Z,1006.16
2019-04-27T08:43:09.202Z,1006.16
2019-04-27T08:44:09.705Z,1006.14
2019-04-27T08:45:09.301Z,1006.15
2019-04-27T08:46:08.791Z,1006.15
2019-04-27T08:47:09.365Z,1006.13
2019-04-27T08:48:09.133Z,1006.11
2019-04-27T08:49:08.406Z,1006.13
2019-04-27T08:50:09.115Z,1006.06
2019-04-27T08:51:09.428Z,1005.99
2019-04-27T08:52:09.213Z,1006.00
2019-04-27T08:53:09.708Z,1006.01
2019-04-27T08:54:09.164Z,1006.00
2019-04-27T08:55:09.398Z,1006.00
2019-04-27T08:56:09.217Z,1006.02
2019-04-27T08:57:09.528Z,1006.02
2019-04-27T08:58:07.680Z,1005.96
2019-04-27T08:59:09.385Z,1006.00
2019-04-27T09:00:09.382Z,1005.96
2019-04-27T09:01:09.981Z,1005.97
2019-04-27T09:02:08.777Z,1005.96
2019-04-27T09:03:09.342Z,1005.99
2019-04-27T09:04:09.225Z,1005.95
2019-04-27T09:05:09.406Z,1005.97
2019-04-27T09:06:09.137Z,1005.99
2019-04-27T09:07:08.808Z,1005.96
2019-04-27T09:08:08.752Z,1005.91
2019-04-27T09:09:09.366Z,1005.93
2019-04-27T09:10:08.640Z,1005.89
2019-04-27T09:11:08.892Z,1005.92
2019-04-27T09:12:09.477Z,1005.93
2019-04-27T09:13:20.155Z,1005.94
2019-04-27T09:14:09.054Z,1005.88
2019-04-27T09:15:07.553Z,1005.94
2019-04-27T09:16:09.240Z,1005.94
2019-04-27T09:17:09.487Z,1005.89
2019-04-27T09:18:09.011Z,1005.86
2019-04-27T09:19:08.803Z,1005.89
2019-04-27T09:20:09.374Z,1005.89
2019-04-27T09:21:08.782Z,1005.86
2019-04-27T09:22:13.599Z,1005.82
2019-04-27T09:23:07.520Z,1005.82
2019-04-27T09:24:09.320Z,1005.85
2019-04-27T09:25:09.309Z,1005.83
2019-04-27T09:26:07.499Z,1005.83
2019-04-27T09:27:09.442Z,1005.82
2019-04-27T09:28:08.777Z,1005.84
2019-04-27T09:29:08.703Z,1005.82
2019-04-27T09:30:08.430Z,1005.85
2019-04-27T09:31:09.106Z,1005.79
2019-04-27T09:32:08.893Z,1005.77
2019-04-27T09:33:07.468Z,1005.78
2019-04-27T09:34:08.110Z,1005.79
2019-04-27T09:35:07.728Z,1005.76
2019-04-27T09:36:07.455Z,1005.77
2019-04-27T09:37:07.458Z,1005.82
2019-04-27T09:38:07.452Z,1005.77
2019-04-27T09:39:08.573Z,1005.81
2019-04-27T09:40:08.232Z,1005.79
2019-04-27T09:41:07.436Z,1005.76
2019-04-27T09:42:07.445Z,1005.75
2019-04-27T09:43:07.608Z,1005.75
2019-04-27T09:44:07.424Z,1005.80
2019-04-27T09:45:07.431Z,1005.78
2019-04-27T09:46:07.420Z,1005.77
2019-04-27T09:47:07.414Z,1005.67
2019-04-27T09:48:07.406Z,1005.78
2019-04-27T09:49:07.501Z,1005.72
2019-04-27T09:50:07.404Z,1005.76
2019-04-27T09:51:07.397Z,1005.77
2019-04-27T09:52:07.394Z,1005.74
2019-04-27T09:53:07.384Z,1005.78
2019-04-27T09:54:07.389Z,1005.72
2019-04-27T09:55:08.530Z,1005.75
2019-04-27T09:56:07.375Z,1005.76
2019-04-27T09:57:07.370Z,1005.72
2019-04-27T09:58:07.372Z,1005.74
2019-04-27T09:59:07.363Z,1005.72
2019-04-27T10:00:07.360Z,1005.73
2019-04-27T10:01:07.362Z,1005.70
2019-04-27T10:02:08.586Z,1005.69
2019-04-27T10:03:07.354Z,1005.65
2019-04-27T10:04:07.350Z,1005.66
2019-04-27T10:05:07.351Z,1005.67
2019-04-27T10:06:43.117Z,1005.69
2019-04-27T10:07:07.814Z,1005.72
2019-04-27T10:08:07.341Z,1005.74
2019-04-27T10:09:07.331Z,1005.76
2019-04-27T10:10:07.327Z,1005.83
2019-04-27T10:11:07.321Z,1005.86
2019-04-27T10:12:07.653Z,1005.91
2019-04-27T10:13:09.363Z,1006.11
2019-04-27T10:14:07.310Z,1006.05
2019-04-27T10:15:07.313Z,1006.07
2019-04-27T10:16:07.306Z,1006.14
2019-04-27T10:17:07.302Z,1006.14
2019-04-27T10:18:07.784Z,1006.14
2019-04-27T10:19:07.294Z,1006.11
2019-04-27T10:20:07.289Z,1006.14
2019-04-27T10:21:07.285Z,1006.19
2019-04-27T10:22:07.307Z,1006.29
2019-04-27T10:23:07.272Z,1006.28
2019-04-27T10:24:07.271Z,1006.32
2019-04-27T10:25:07.266Z,1006.28
2019-04-27T10:26:07.264Z,1006.24
2019-04-27T10:27:07.893Z,1006.29
2019-04-27T10:28:07.259Z,1006.32
2019-04-27T10:29:07.252Z,1006.33
2019-04-27T10:30:07.243Z,1006.28
2019-04-27T10:31:07.237Z,1006.42
2019-04-27T10:32:07.230Z,1006.43
2019-04-27T10:33:08.218Z,1006.49
2019-04-27T10:34:07.223Z,1006.45
2019-04-27T10:35:07.682Z,1006.45
2019-04-27T10:36:07.213Z,1006.52
2019-04-27T10:37:07.207Z,1006.50
2019-04-27T10:38:07.204Z,1006.52
2019-04-27T10:39:07.201Z,1006.48
2019-04-27T10:40:07.195Z,1006.37
2019-04-27T10:41:07.688Z,1006.41
2019-04-27T10:42:07.182Z,1006.41
2019-04-27T10:43:07.175Z,1006.41
2019-04-27T10:44:07.653Z,1006.45
2019-04-27T10:45:07.165Z,1006.50
2019-04-27T10:46:07.170Z,1006.49
2019-04-27T10:47:07.156Z,1006.54
2019-04-27T10:48:07.155Z,1006.58
2019-04-27T10:49:07.144Z,1006.57
2019-04-27T10:50:07.136Z,1006.52
2019-04-27T10:51:07.441Z,1006.52
2019-04-27T10:52:07.128Z,1006.51
2019-04-27T10:53:08.429Z,1006.52
2019-04-27T10:54:08.164Z,1006.52
2019-04-27T10:55:07.115Z,1006.55
2019-04-27T10:56:07.101Z,1006.57
2019-04-27T10:57:11.399Z,1006.55
2019-04-27T10:58:07.098Z,1006.55
2019-04-27T10:59:09.719Z,1006.54
2019-04-27T11:00:07.243Z,1006.55
2019-04-27T11:01:07.395Z,1006.59
2019-04-27T11:02:07.069Z,1006.56
2019-04-27T11:03:07.656Z,1006.56
2019-04-27T11:04:07.961Z,1006.59
2019-04-27T11:05:07.054Z,1006.58
2019-04-27T11:06:07.827Z,1006.55
2019-04-27T11:07:07.207Z,1006.57
2019-04-27T11:08:07.141Z,1006.58
2019-04-27T11:09:07.024Z,1006.52
2019-04-27T11:10:07.635Z,1006.52
2019-04-27T11:11:07.043Z,1006.51
2019-04-27T11:12:07.483Z,1006.55
2019-04-27T11:13:07.007Z,1006.55
2019-04-27T11:14:07.704Z,1006.55
2019-04-27T11:15:07.760Z,1006.49
2019-04-27T11:16:06.992Z,1006.56
2019-04-27T11:17:07.527Z,1006.56
2019-04-27T11:18:07.311Z,1006.61
2019-04-27T11:19:06.980Z,1006.61
2019-04-27T11:20:06.975Z,1006.65
2019-04-27T11:21:06.979Z,1006.66
2019-04-27T11:22:08.262Z,1006.69
2019-04-27T11:23:12.142Z,1006.65
2019-04-27T11:24:06.972Z,1006.66
2019-04-27T11:25:06.939Z,1006.63
2019-04-27T11:26:07.661Z,1006.67
2019-04-27T11:27:06.975Z,1006.71
2019-04-27T11:28:06.933Z,1006.68
2019-04-27T11:29:06.924Z,1006.74
2019-04-27T11:30:06.921Z,1006.72
2019-04-27T11:31:06.948Z,1006.74
2019-04-27T11:32:06.907Z,1006.65
2019-04-27T11:33:06.907Z,1006.62
2019-04-27T11:34:06.900Z,1006.62
2019-04-27T11:35:06.887Z,1006.67
2019-04-27T11:36:07.957Z,1006.77
2019-04-27T11:37:07.606Z,1006.80
2019-04-27T11:38:06.895Z,1006.78
2019-04-27T11:39:06.874Z,1006.77
2019-04-27T11:40:07.005Z,1006.73
2019-04-27T11:41:07.554Z,1006.73
2019-04-27T11:42:06.855Z,1006.65
2019-04-27T11:43:06.851Z,1006.67
2019-04-27T11:44:06.848Z,1006.70
2019-04-27T11:45:06.866Z,1006.73
2019-04-27T11:46:06.837Z,1006.73
2019-04-27T11:47:06.828Z,1006.69
2019-04-27T11:48:06.861Z,1006.78
2019-04-27T11:49:06.848Z,1006.75
2019-04-27T11:50:08.190Z,1006.77
2019-04-27T11:51:07.010Z,1006.77
2019-04-27T11:52:06.813Z,1006.77
2019-04-27T11:53:19.312Z,1006.74
2019-04-27T11:54:06.789Z,1006.78
2019-04-27T11:55:06.786Z,1006.71
2019-04-27T11:56:06.787Z,1006.70
2019-04-27T11:57:06.779Z,1006.71
2019-04-27T11:58:08.241Z,1006.63
2019-04-27T11:59:07.086Z,1006.67
2019-04-27T12:00:07.504Z,1006.73
2019-04-27T12:01:08.464Z,1006.75
2019-04-27T12:02:06.754Z,1006.73
2019-04-27T12:03:06.847Z,1006.70
2019-04-27T12:04:06.744Z,1006.70
2019-04-27T12:05:07.978Z,1006.68